SBY weather

Salisbury Ocean City Wicomico Regional Airport
Salisbury, Maryland, United States

Public forecast

Using degrees Fahrenheit for public forecast. Weather courtesy of forecast.io.

Current aviation weather report (METAR) for Salisbury Ocean City Wicomico Regional Airport

Retrieved 2020/07/10 09:33 UTC (0 seconds ago):

KSBY 100933Z AUTO 01014G21KT 8SM RA BKN009 BKN060 23/22 A2978 RMK AO2 RAE01B27 P0002 T02330217

Aviation forecast (TAF) for Salisbury Ocean City Wicomico Regional Airport

Retrieved 2020/07/10 06:30 UTC (3 hours ago):

TAF KSBY 100527Z 1006/1106 02008KT P6SM -RA SCT012 BKN025 OVC080 TEMPO 1006/1010 3SM +SHRA BR OVC012 FM101000 03012KT 3SM +SHRA VCTS OVC010CB FM101300 36009KT 6SM SHRA OVC020 FM101700 33009KT P6SM VCSH BKN012 FM102000 31010KT P6SM BKN035